createdAt,value
2017-11-27T00:00:16.824Z,5.70
2017-11-27T00:01:16.790Z,6.90
2017-11-27T00:03:14.252Z,6.20
2017-11-27T00:04:12.690Z,6.70
2017-11-27T00:06:08.668Z,6.00
2017-11-27T00:07:08.633Z,4.80
2017-11-27T00:09:05.560Z,5.00
2017-11-27T00:10:04.550Z,5.50
2017-11-27T00:12:00.502Z,4.80
2017-11-27T00:13:00.996Z,4.80
2017-11-27T00:14:55.942Z,4.70
2017-11-27T00:15:54.925Z,4.40
2017-11-27T00:17:51.380Z,4.40
2017-11-27T00:18:52.310Z,4.20
2017-11-27T00:20:47.299Z,4.30
2017-11-27T00:21:46.761Z,4.20
2017-11-27T00:23:41.236Z,4.70
2017-11-27T00:24:41.725Z,3.70
2017-11-27T00:26:37.111Z,4.30
2017-11-27T00:27:37.634Z,4.40
2017-11-27T00:29:34.063Z,4.40
2017-11-27T00:30:33.050Z,4.50
2017-11-27T00:32:31.006Z,4.60
2017-11-27T00:33:30.496Z,4.80
2017-11-27T00:35:23.914Z,4.60
2017-11-27T00:36:23.391Z,4.90
2017-11-27T00:38:19.819Z,4.50
2017-11-27T00:39:19.824Z,4.80
2017-11-27T00:41:14.242Z,4.40
2017-11-27T00:42:13.722Z,4.30
2017-11-27T00:44:10.654Z,4.30
2017-11-27T00:45:09.644Z,4.30
2017-11-27T00:47:04.088Z,4.80
2017-11-27T00:48:04.083Z,4.40
2017-11-27T00:49:59.539Z,5.10
2017-11-27T00:50:59.028Z,5.00
2017-11-27T00:52:54.964Z,5.20
2017-11-27T00:53:54.416Z,4.50
2017-11-27T00:55:50.364Z,4.70
2017-11-27T00:56:50.349Z,5.10
2017-11-27T00:58:46.316Z,4.50
2017-11-27T00:59:46.265Z,4.20
2017-11-27T01:01:43.714Z,3.90
2017-11-27T01:02:42.718Z,4.70
2017-11-27T01:04:37.146Z,3.80
2017-11-27T01:05:36.619Z,3.80
2017-11-27T01:07:33.591Z,5.70
2017-11-27T01:08:32.665Z,4.80
2017-11-27T01:10:28.596Z,4.20
2017-11-27T01:11:27.599Z,3.90
2017-11-27T01:13:23.037Z,4.20
2017-11-27T01:14:22.999Z,5.10
2017-11-27T01:16:17.943Z,4.70
2017-11-27T01:17:17.430Z,4.60
2017-11-27T01:19:13.884Z,4.20
2017-11-27T01:20:13.886Z,4.20
2017-11-27T01:22:09.809Z,4.70
2017-11-27T01:23:10.297Z,4.20
2017-11-27T01:25:06.761Z,4.40
2017-11-27T01:26:05.242Z,4.90
2017-11-27T01:28:01.684Z,4.10
2017-11-27T01:29:01.153Z,3.80
2017-11-27T01:30:54.625Z,4.70
2017-11-27T01:31:54.602Z,4.50
2017-11-27T01:33:49.047Z,4.90
2017-11-27T01:34:49.026Z,4.70
2017-11-27T01:36:43.489Z,4.90
2017-11-27T01:37:43.442Z,4.20
2017-11-27T01:39:39.409Z,4.10
2017-11-27T01:40:39.367Z,4.10
2017-11-27T01:42:35.274Z,4.60
2017-11-27T01:43:35.257Z,4.10
2017-11-27T01:45:31.177Z,4.90
2017-11-27T01:46:31.177Z,4.40
2017-11-27T01:48:27.640Z,5.20
2017-11-27T01:49:25.610Z,5.30
2017-11-27T01:51:20.061Z,4.90
2017-11-27T01:52:20.552Z,5.30
2017-11-27T01:54:14.471Z,5.10
2017-11-27T01:55:14.475Z,5.60
2017-11-27T01:57:10.404Z,6.00
2017-11-27T01:58:10.375Z,5.20
2017-11-27T02:00:07.307Z,5.40
2017-11-27T02:01:07.809Z,5.60
2017-11-27T02:02:59.676Z,5.50
2017-11-27T02:03:59.686Z,5.70
2017-11-27T02:05:56.131Z,4.90
2017-11-27T02:06:55.634Z,5.10
2017-11-27T02:08:51.542Z,5.10
2017-11-27T02:09:51.538Z,5.20
2017-11-27T02:11:47.485Z,4.60
2017-11-27T02:12:47.458Z,4.90
2017-11-27T02:14:44.410Z,5.40
2017-11-27T02:15:43.378Z,5.30
2017-11-27T02:17:40.330Z,5.40
2017-11-27T02:18:39.295Z,6.30
2017-11-27T02:20:35.252Z,6.20
2017-11-27T02:21:35.229Z,6.50
2017-11-27T02:23:31.211Z,6.90
2017-11-27T02:24:31.144Z,6.30
2017-11-27T02:26:27.608Z,6.50
2017-11-27T02:27:27.604Z,6.70
2017-11-27T02:29:22.015Z,6.30
2017-11-27T02:30:21.496Z,6.10
2017-11-27T02:32:17.953Z,5.60
2017-11-27T02:33:17.944Z,5.50
2017-11-27T02:35:13.333Z,5.80
2017-11-27T02:36:13.324Z,5.40
2017-11-27T02:38:09.289Z,5.80
2017-11-27T02:39:09.268Z,6.10
2017-11-27T02:41:03.718Z,5.90
2017-11-27T02:42:03.695Z,5.60
2017-11-27T02:43:59.657Z,5.40
2017-11-27T02:44:59.642Z,4.90
2017-11-27T02:46:54.064Z,4.40
2017-11-27T02:47:54.066Z,3.90
2017-11-27T02:49:49.995Z,4.30
2017-11-27T02:50:49.988Z,5.10
2017-11-27T02:52:45.434Z,4.60
2017-11-27T02:53:44.387Z,5.10
2017-11-27T02:55:40.823Z,4.10
2017-11-27T02:56:40.309Z,4.50
2017-11-27T02:58:36.248Z,4.30
2017-11-27T02:59:36.239Z,4.40
2017-11-27T03:01:32.210Z,4.10
2017-11-27T03:02:32.164Z,3.80
2017-11-27T03:04:26.634Z,3.70
2017-11-27T03:05:26.605Z,3.50
2017-11-27T03:07:20.052Z,3.90
2017-11-27T03:08:20.029Z,3.90
2017-11-27T03:10:16.487Z,3.80
2017-11-27T03:11:15.946Z,4.10
2017-11-27T03:13:10.906Z,3.80
2017-11-27T03:14:10.355Z,3.70
2017-11-27T03:16:06.776Z,3.90
2017-11-27T03:17:06.316Z,3.60
2017-11-27T03:19:00.715Z,3.60
2017-11-27T03:20:00.681Z,3.40
2017-11-27T03:21:54.644Z,3.80
2017-11-27T03:22:54.095Z,3.90
2017-11-27T03:24:49.065Z,3.70
2017-11-27T03:25:49.054Z,4.10
2017-11-27T03:27:44.447Z,4.50
2017-11-27T03:28:44.454Z,4.50
2017-11-27T03:30:42.917Z,4.60
2017-11-27T03:31:42.480Z,5.20
2017-11-27T03:33:36.938Z,5.50
2017-11-27T03:34:36.918Z,6.00
2017-11-27T03:36:31.371Z,5.50
2017-11-27T03:37:31.339Z,5.60
2017-11-27T03:39:27.244Z,5.60
2017-11-27T03:40:27.267Z,5.60
2017-11-27T03:42:23.173Z,5.20
2017-11-27T03:43:23.165Z,4.30
2017-11-27T03:45:17.566Z,5.50
2017-11-27T03:46:17.566Z,4.60
2017-11-27T03:48:13.527Z,5.80
2017-11-27T03:49:14.014Z,5.30
2017-11-27T03:51:09.472Z,4.80
2017-11-27T03:52:09.418Z,4.90
2017-11-27T03:54:05.333Z,5.50
2017-11-27T03:55:05.341Z,4.80
2017-11-27T03:57:02.281Z,4.80
2017-11-27T03:58:01.279Z,4.80
2017-11-27T03:59:57.244Z,5.00
2017-11-27T04:00:57.207Z,4.50
2017-11-27T04:02:53.639Z,4.80
2017-11-27T04:03:53.654Z,4.30
2017-11-27T04:05:49.033Z,4.60
2017-11-27T04:06:49.032Z,4.40
2017-11-27T04:08:43.990Z,3.90
2017-11-27T04:09:43.439Z,4.00
2017-11-27T04:11:39.888Z,4.10
2017-11-27T04:12:39.373Z,3.90
2017-11-27T04:14:35.846Z,3.70
2017-11-27T04:15:35.331Z,3.20
2017-11-27T04:17:29.753Z,4.10
2017-11-27T04:18:29.740Z,3.90
2017-11-27T04:20:26.190Z,4.20
2017-11-27T04:21:25.680Z,3.20
2017-11-27T04:23:23.123Z,3.70
2017-11-27T04:24:21.616Z,3.90
2017-11-27T04:26:17.553Z,3.60
2017-11-27T04:27:17.537Z,3.50
2017-11-27T04:29:13.482Z,3.10
2017-11-27T04:30:13.445Z,3.40
2017-11-27T04:32:08.399Z,3.40
2017-11-27T04:33:07.900Z,3.70
2017-11-27T04:35:04.344Z,3.60
2017-11-27T04:36:03.819Z,3.10
2017-11-27T04:38:00.780Z,3.50
2017-11-27T04:38:59.748Z,4.00
2017-11-27T04:40:56.211Z,3.90
2017-11-27T04:41:56.197Z,3.90
2017-11-27T04:43:51.615Z,3.90
2017-11-27T04:44:51.601Z,3.80
2017-11-27T04:46:49.572Z,3.80
2017-11-27T04:47:47.554Z,3.60
2017-11-27T04:49:43.517Z,3.40
2017-11-27T04:50:43.488Z,4.20
2017-11-27T04:52:40.439Z,3.50
2017-11-27T04:53:39.382Z,4.20
2017-11-27T04:55:35.816Z,3.30
2017-11-27T04:56:35.303Z,4.00
2017-11-27T04:58:31.750Z,3.20
2017-11-27T04:59:31.243Z,3.40
2017-11-27T05:01:27.199Z,3.90
2017-11-27T05:02:27.164Z,4.20
2017-11-27T05:04:23.110Z,3.80
2017-11-27T05:05:23.616Z,3.40
2017-11-27T05:07:19.033Z,3.70
2017-11-27T05:08:19.034Z,4.30
2017-11-27T05:10:14.978Z,3.60
2017-11-27T05:11:14.947Z,3.90
2017-11-27T05:13:09.399Z,3.30
2017-11-27T05:14:09.345Z,4.40
2017-11-27T05:16:06.803Z,3.90
2017-11-27T05:17:05.242Z,3.50
2017-11-27T05:19:01.162Z,3.80
2017-11-27T05:20:01.165Z,4.00
2017-11-27T05:21:57.131Z,4.20
2017-11-27T05:22:57.100Z,4.40
2017-11-27T05:24:53.043Z,4.70
2017-11-27T05:25:53.026Z,4.30
2017-11-27T05:27:48.944Z,4.00
2017-11-27T05:28:48.939Z,4.50
2017-11-27T05:30:45.410Z,4.50
2017-11-27T05:31:44.877Z,4.80
2017-11-27T05:33:39.817Z,4.50
2017-11-27T05:34:39.288Z,3.90
2017-11-27T05:36:35.242Z,4.10
2017-11-27T05:37:35.738Z,4.20
2017-11-27T05:39:32.669Z,4.10
2017-11-27T05:40:31.163Z,4.00
2017-11-27T05:42:27.159Z,5.80
2017-11-27T05:43:27.073Z,4.80
2017-11-27T05:45:23.503Z,4.60
2017-11-27T05:46:23.502Z,4.60
2017-11-27T05:48:18.901Z,4.20
2017-11-27T05:49:19.427Z,3.80
2017-11-27T05:51:14.843Z,4.50
2017-11-27T05:52:14.845Z,4.90
2017-11-27T05:54:11.789Z,4.40
2017-11-27T05:55:11.283Z,4.20
2017-11-27T05:57:07.225Z,4.70
2017-11-27T05:58:06.679Z,6.00
2017-11-27T06:00:03.130Z,4.20
2017-11-27T06:01:02.600Z,4.50
2017-11-27T06:02:58.583Z,5.60
2017-11-27T06:03:58.517Z,5.40
2017-11-27T06:05:54.611Z,4.80
2017-11-27T06:06:55.461Z,5.10
2017-11-27T06:09:02.512Z,4.60
2017-11-27T06:10:02.912Z,4.80
2017-11-27T06:11:56.639Z,4.60
2017-11-27T06:12:56.602Z,5.30
2017-11-27T06:14:51.084Z,5.50
2017-11-27T06:15:51.028Z,5.00
2017-11-27T06:17:46.955Z,4.60
2017-11-27T06:18:46.968Z,4.60
2017-11-27T06:20:42.874Z,4.90
2017-11-27T06:21:43.408Z,4.30
2017-11-27T06:23:43.375Z,5.20
2017-11-27T06:24:43.313Z,4.30
2017-11-27T06:26:37.791Z,4.90
2017-11-27T06:27:38.282Z,4.90
2017-11-27T06:29:34.195Z,4.00
2017-11-27T06:30:33.683Z,4.20
2017-11-27T06:32:29.587Z,5.70
2017-11-27T06:33:29.581Z,5.80
2017-11-27T06:35:23.552Z,4.70
2017-11-27T06:36:23.033Z,4.40
2017-11-27T06:38:18.972Z,5.00
2017-11-27T06:39:18.960Z,4.70
2017-11-27T06:41:15.420Z,4.40
2017-11-27T06:42:14.911Z,4.70
2017-11-27T06:44:10.826Z,4.50
2017-11-27T06:45:10.824Z,3.50
2017-11-27T06:47:07.292Z,4.50
2017-11-27T06:48:06.757Z,5.30
2017-11-27T06:50:03.207Z,5.50
2017-11-27T06:51:02.699Z,4.50
2017-11-27T06:52:58.658Z,4.80
2017-11-27T06:53:58.593Z,4.70
2017-11-27T06:55:56.052Z,5.50
2017-11-27T06:56:54.543Z,5.50
2017-11-27T06:58:50.974Z,4.80
2017-11-27T06:59:50.469Z,6.40
2017-11-27T07:01:46.443Z,4.90
2017-11-27T07:02:46.387Z,4.30
2017-11-27T07:04:41.349Z,4.60
2017-11-27T07:05:40.812Z,4.90
2017-11-27T07:07:35.248Z,5.20
2017-11-27T07:08:35.773Z,4.70
2017-11-27T07:10:32.193Z,4.80
2017-11-27T07:11:31.175Z,5.00
2017-11-27T07:13:28.627Z,4.60
2017-11-27T07:14:27.351Z,3.70
2017-11-27T07:16:23.792Z,4.10
2017-11-27T07:17:23.801Z,5.30
2017-11-27T07:19:19.208Z,4.70
2017-11-27T07:20:19.198Z,5.00
2017-11-27T07:22:13.163Z,4.40
2017-11-27T07:23:12.603Z,4.90
2017-11-27T07:25:08.588Z,6.70
2017-11-27T07:26:08.540Z,4.90
2017-11-27T07:28:02.117Z,6.50
2017-11-27T07:29:02.014Z,5.70
2017-11-27T07:30:55.428Z,5.00
2017-11-27T07:31:55.378Z,5.20
2017-11-27T07:33:49.866Z,4.70
2017-11-27T07:34:50.325Z,4.40
2017-11-27T07:36:45.818Z,5.30
2017-11-27T07:37:45.829Z,5.00
2017-11-27T07:39:41.766Z,4.80
2017-11-27T07:40:41.747Z,5.30
2017-11-27T07:42:36.694Z,5.10
2017-11-27T07:43:36.700Z,5.70
2017-11-27T07:45:32.101Z,5.30
2017-11-27T07:46:32.059Z,4.80
2017-11-27T07:48:26.505Z,5.20
2017-11-27T07:49:26.502Z,5.40
2017-11-27T07:51:22.472Z,25.10
2017-11-27T07:52:22.425Z,12.10
2017-11-27T07:54:18.395Z,5.00
2017-11-27T07:55:19.387Z,4.90
2017-11-27T07:57:11.842Z,4.80
2017-11-27T07:58:11.807Z,4.80
2017-11-27T08:00:09.766Z,4.70
2017-11-27T08:01:09.749Z,4.80
2017-11-27T08:03:04.685Z,4.30
2017-11-27T08:04:04.141Z,4.80
2017-11-27T08:06:00.110Z,4.30
2017-11-27T08:07:00.075Z,4.70
2017-11-27T08:08:56.051Z,4.10
2017-11-27T08:09:56.010Z,5.70
2017-11-27T08:11:53.955Z,4.40
2017-11-27T08:12:53.965Z,4.30
2017-11-27T08:14:48.914Z,4.70
2017-11-27T08:15:48.404Z,4.40
2017-11-27T08:17:44.856Z,4.20
2017-11-27T08:18:44.333Z,4.20
2017-11-27T08:20:42.258Z,4.20
2017-11-27T08:21:42.252Z,4.60
2017-11-27T08:23:37.277Z,4.00
2017-11-27T08:24:36.689Z,4.10
2017-11-27T08:26:33.137Z,4.30
2017-11-27T08:27:32.621Z,5.00
2017-11-27T08:29:29.057Z,4.30
2017-11-27T08:30:28.546Z,4.50
2017-11-27T08:32:24.508Z,4.60
2017-11-27T08:33:24.984Z,4.00
2017-11-27T08:35:21.383Z,4.50
2017-11-27T08:36:20.361Z,4.40
2017-11-27T08:38:16.239Z,4.30
2017-11-27T08:39:14.806Z,4.70
2017-11-27T08:41:11.250Z,4.70
2017-11-27T08:42:10.742Z,4.60
2017-11-27T08:44:05.179Z,3.80
2017-11-27T08:45:05.181Z,4.50
2017-11-27T08:47:01.618Z,4.80
2017-11-27T08:47:59.796Z,4.20
2017-11-27T08:49:56.270Z,4.40
2017-11-27T08:50:55.724Z,4.50
2017-11-27T08:52:51.621Z,4.90
2017-11-27T08:53:51.634Z,4.40
2017-11-27T08:55:46.088Z,3.70
2017-11-27T08:56:46.048Z,3.30
2017-11-27T08:58:44.042Z,3.70
2017-11-27T08:59:42.001Z,3.80
2017-11-27T09:01:37.962Z,4.10
2017-11-27T09:02:37.942Z,3.30
2017-11-27T09:04:35.867Z,3.60
2017-11-27T09:05:35.873Z,4.00
2017-11-27T09:07:31.825Z,4.20
2017-11-27T09:08:31.788Z,3.80
2017-11-27T09:10:27.756Z,3.70
2017-11-27T09:11:27.747Z,3.40
2017-11-27T09:13:22.229Z,3.20
2017-11-27T09:14:22.691Z,3.20
2017-11-27T09:16:15.609Z,3.40
2017-11-27T09:17:15.643Z,3.30
2017-11-27T09:19:09.567Z,3.20
2017-11-27T09:20:09.046Z,3.60
2017-11-27T09:22:03.484Z,3.40
2017-11-27T09:23:03.484Z,3.40
2017-11-27T09:24:57.445Z,3.10
2017-11-27T09:25:56.936Z,3.10
2017-11-27T09:27:50.336Z,3.40
2017-11-27T09:28:50.356Z,4.00
2017-11-27T09:30:44.805Z,3.30
2017-11-27T09:31:43.793Z,3.30
2017-11-27T09:33:37.226Z,3.30
2017-11-27T09:34:37.207Z,3.30
2017-11-27T09:36:30.624Z,3.00
2017-11-27T09:37:30.624Z,2.90
2017-11-27T09:39:26.067Z,3.30
2017-11-27T09:40:25.140Z,3.20
2017-11-27T09:42:18.598Z,2.90
2017-11-27T09:43:18.500Z,2.70
2017-11-27T09:45:12.942Z,3.00
2017-11-27T09:46:12.942Z,2.80
2017-11-27T09:48:07.422Z,2.90
2017-11-27T09:49:07.880Z,2.30
2017-11-27T09:51:04.320Z,2.40
2017-11-27T09:52:03.308Z,2.50
2017-11-27T09:53:56.774Z,2.50
2017-11-27T09:54:56.754Z,2.50
2017-11-27T09:56:50.150Z,2.50
2017-11-27T09:57:50.157Z,2.80
2017-11-27T09:59:44.585Z,2.30
2017-11-27T10:00:44.604Z,2.30
2017-11-27T10:02:37.975Z,3.50
2017-11-27T10:03:38.465Z,2.80
2017-11-27T10:05:31.408Z,2.70
2017-11-27T10:06:34.218Z,2.90
2017-11-27T10:08:33.408Z,2.70
2017-11-27T10:09:33.592Z,2.60
2017-11-27T10:11:47.681Z,2.70
2017-11-27T10:12:47.090Z,2.30
2017-11-27T10:14:48.741Z,2.50
2017-11-27T10:15:48.768Z,2.30
2017-11-27T10:17:51.244Z,2.10
2017-11-27T10:18:50.014Z,2.30
2017-11-27T10:20:56.519Z,2.30
2017-11-27T10:21:55.681Z,2.50
2017-11-27T10:23:57.075Z,2.40
2017-11-27T10:24:57.268Z,2.70
2017-11-27T10:26:58.291Z,2.20
2017-11-27T10:27:57.134Z,2.10
2017-11-27T10:30:02.751Z,2.20
2017-11-27T10:31:02.632Z,2.00
2017-11-27T10:33:03.964Z,2.00
2017-11-27T10:34:04.437Z,2.30
2017-11-27T10:36:05.017Z,1.90
2017-11-27T10:37:05.309Z,2.30
2017-11-27T10:39:10.450Z,1.80
2017-11-27T10:40:06.385Z,2.00
2017-11-27T10:42:07.009Z,2.10
2017-11-27T10:43:07.703Z,2.20
2017-11-27T10:45:09.937Z,1.80
2017-11-27T10:46:08.580Z,2.60
2017-11-27T10:48:11.802Z,2.20
2017-11-27T10:49:11.146Z,1.90
2017-11-27T10:51:10.730Z,1.70
2017-11-27T10:52:10.605Z,2.00
2017-11-27T10:54:11.384Z,1.70
2017-11-27T10:55:11.411Z,1.80
2017-11-27T10:57:11.410Z,1.90
2017-11-27T10:58:11.798Z,1.70
2017-11-27T11:00:11.851Z,2.70
2017-11-27T11:01:12.249Z,2.20
2017-11-27T11:03:14.121Z,1.80
2017-11-27T11:04:12.656Z,1.70
2017-11-27T11:06:14.156Z,1.70
2017-11-27T11:07:14.075Z,1.90
2017-11-27T11:09:14.363Z,2.50
2017-11-27T11:10:14.352Z,2.30
2017-11-27T11:12:14.862Z,2.20
2017-11-27T11:13:14.371Z,2.40
2017-11-27T11:15:15.260Z,2.00
2017-11-27T11:16:14.855Z,2.10
2017-11-27T11:18:17.298Z,2.20
2017-11-27T11:19:16.752Z,2.60
2017-11-27T11:21:17.669Z,2.50
2017-11-27T11:22:15.637Z,2.70
2017-11-27T11:24:16.247Z,2.30
2017-11-27T11:25:16.166Z,2.50
2017-11-27T11:27:33.700Z,2.70
2017-11-27T11:28:17.817Z,2.30
2017-11-27T11:30:18.057Z,2.30
2017-11-27T11:31:18.496Z,2.00
2017-11-27T11:33:19.442Z,2.10
2017-11-27T11:34:18.954Z,2.20
2017-11-27T11:36:24.376Z,2.00
2017-11-27T11:37:23.536Z,2.00
2017-11-27T11:39:24.067Z,2.50
2017-11-27T11:40:23.536Z,2.20
2017-11-27T11:42:27.459Z,1.90
2017-11-27T11:43:27.561Z,2.20
2017-11-27T11:45:28.040Z,1.80
2017-11-27T11:46:28.397Z,2.20
2017-11-27T11:48:31.085Z,2.00
2017-11-27T11:49:28.933Z,2.00
2017-11-27T11:51:34.420Z,2.20
2017-11-27T11:52:33.819Z,1.90
2017-11-27T11:54:33.876Z,2.00
2017-11-27T11:55:33.292Z,1.80
2017-11-27T11:57:32.266Z,1.90
2017-11-27T11:58:36.267Z,1.90
2017-11-27T12:00:31.716Z,2.00
2017-11-27T12:01:32.311Z,1.80
2017-11-27T12:03:33.769Z,2.10
2017-11-27T12:04:32.406Z,1.90
2017-11-27T12:06:38.648Z,1.80
2017-11-27T12:07:37.216Z,1.90
2017-11-27T12:09:36.005Z,1.80
2017-11-27T12:10:36.473Z,2.10
2017-11-27T12:12:38.114Z,1.70
2017-11-27T12:13:35.391Z,1.70
2017-11-27T12:15:39.314Z,1.50
2017-11-27T12:16:37.686Z,1.50
2017-11-27T12:18:38.863Z,1.50
2017-11-27T12:19:38.329Z,1.90
2017-11-27T12:21:38.290Z,1.80
2017-11-27T12:22:38.771Z,1.40
2017-11-27T12:24:38.679Z,1.60
2017-11-27T12:25:39.192Z,1.50
2017-11-27T12:27:39.195Z,1.70
2017-11-27T12:28:39.618Z,1.70
2017-11-27T12:30:37.296Z,2.10
2017-11-27T12:31:38.054Z,2.00
2017-11-27T12:33:37.595Z,2.10
2017-11-27T12:34:37.594Z,1.80
2017-11-27T12:36:38.069Z,2.00
2017-11-27T12:37:38.054Z,1.70
2017-11-27T12:39:34.085Z,1.90
2017-11-27T12:40:34.079Z,1.70
2017-11-27T12:42:34.410Z,1.70
2017-11-27T12:43:34.949Z,1.50
2017-11-27T12:45:36.857Z,2.20
2017-11-27T12:46:35.327Z,2.30
2017-11-27T12:48:33.863Z,1.70
2017-11-27T12:49:34.664Z,1.60
2017-11-27T12:51:34.331Z,1.50
2017-11-27T12:52:33.257Z,1.70
2017-11-27T12:54:33.903Z,2.20
2017-11-27T12:55:33.734Z,2.00
2017-11-27T12:57:32.260Z,1.50
2017-11-27T12:58:33.617Z,2.20
2017-11-27T13:00:32.616Z,1.80
2017-11-27T13:01:32.123Z,1.60
2017-11-27T13:03:33.125Z,2.10
2017-11-27T13:04:32.521Z,2.10
2017-11-27T13:06:33.457Z,1.60
2017-11-27T13:07:33.467Z,1.60
2017-11-27T13:09:33.416Z,1.80
2017-11-27T13:10:33.938Z,1.60
2017-11-27T13:12:33.829Z,2.20
2017-11-27T13:13:34.331Z,1.90
2017-11-27T13:15:34.734Z,1.90
2017-11-27T13:16:34.731Z,1.70
2017-11-27T13:18:34.678Z,1.90
2017-11-27T13:19:34.652Z,2.80
2017-11-27T13:21:35.822Z,2.00
2017-11-27T13:22:35.144Z,2.10
2017-11-27T13:24:33.150Z,7.00
2017-11-27T13:25:33.141Z,5.20
2017-11-27T13:27:35.009Z,3.00
2017-11-27T13:28:33.507Z,3.10
2017-11-27T13:30:29.484Z,2.90
2017-11-27T13:31:29.493Z,3.40
2017-11-27T13:33:29.900Z,3.90
2017-11-27T13:36:03.375Z,3.80
2017-11-27T13:36:50.292Z,3.90
2017-11-27T13:38:51.675Z,3.40
2017-11-27T13:39:50.660Z,3.80
2017-11-27T13:41:51.138Z,3.90
2017-11-27T13:42:52.746Z,4.10
2017-11-27T13:44:55.544Z,6.80
2017-11-27T13:45:51.551Z,5.60
2017-11-27T13:47:53.500Z,4.70
2017-11-27T13:48:52.564Z,4.60
2017-11-27T13:50:52.544Z,5.50
2017-11-27T13:51:54.000Z,5.70
2017-11-27T13:53:52.985Z,4.60
2017-11-27T13:54:55.385Z,4.30
2017-11-27T13:56:53.380Z,4.30
2017-11-27T13:57:53.854Z,4.40
2017-11-27T13:59:54.265Z,4.10
2017-11-27T14:00:54.300Z,3.30
2017-11-27T14:02:54.197Z,3.80
2017-11-27T14:03:54.204Z,3.90
2017-11-27T14:05:56.634Z,4.00
2017-11-27T14:06:54.609Z,3.10
2017-11-27T14:08:55.043Z,2.80
2017-11-27T14:09:55.033Z,3.20
2017-11-27T14:12:03.072Z,3.60
2017-11-27T14:13:01.545Z,3.30
2017-11-27T14:15:00.960Z,4.40
2017-11-27T14:16:00.915Z,4.10
2017-11-27T14:18:02.920Z,4.50
2017-11-27T14:19:01.335Z,5.20
2017-11-27T14:20:57.333Z,5.60
2017-11-27T14:21:57.387Z,5.60
2017-11-27T14:23:55.414Z,5.10
2017-11-27T14:24:57.242Z,5.00
2017-11-27T14:26:57.828Z,4.20
2017-11-27T14:27:56.177Z,4.50
2017-11-27T14:29:55.956Z,3.20
2017-11-27T14:30:54.599Z,2.80
2017-11-27T14:32:52.502Z,2.80
2017-11-27T14:33:52.031Z,3.20
2017-11-27T14:35:54.904Z,2.90
2017-11-27T14:36:53.961Z,2.50
2017-11-27T14:38:55.868Z,2.70
2017-11-27T14:39:53.824Z,3.00
2017-11-27T14:41:51.750Z,3.10
2017-11-27T14:42:51.745Z,3.40
2017-11-27T14:44:49.664Z,3.00
2017-11-27T14:45:49.666Z,2.90
2017-11-27T14:47:46.614Z,3.70
2017-11-27T14:48:45.618Z,3.70
2017-11-27T14:50:42.590Z,3.60
2017-11-27T14:51:41.759Z,2.80
2017-11-27T14:53:37.710Z,3.10
2017-11-27T14:54:37.684Z,2.90
2017-11-27T14:56:35.642Z,3.10
2017-11-27T14:57:35.605Z,2.80
2017-11-27T14:59:33.606Z,3.10
2017-11-27T15:00:33.559Z,2.80
2017-11-27T15:02:31.434Z,2.40
2017-11-27T15:03:31.994Z,2.60
2017-11-27T15:05:34.883Z,3.10
2017-11-27T15:06:31.874Z,2.80
2017-11-27T15:08:27.828Z,2.90
2017-11-27T15:09:28.330Z,2.40
2017-11-27T15:11:26.840Z,2.30
2017-11-27T15:12:25.889Z,2.40
2017-11-27T15:14:27.291Z,2.70
2017-11-27T15:15:28.296Z,2.70
2017-11-27T15:17:22.295Z,2.30
2017-11-27T15:18:22.765Z,2.40
2017-11-27T15:20:22.663Z,2.40
2017-11-27T15:21:22.705Z,2.50
2017-11-27T15:23:24.169Z,2.30
2017-11-27T15:24:23.106Z,2.50
2017-11-27T15:26:21.589Z,2.30
2017-11-27T15:27:21.634Z,3.00
2017-11-27T15:29:19.497Z,2.30
2017-11-27T15:30:19.137Z,2.70
2017-11-27T15:32:23.183Z,3.20
2017-11-27T15:33:24.051Z,3.40
2017-11-27T15:35:18.994Z,3.20
2017-11-27T15:36:18.965Z,3.60
2017-11-27T15:38:19.445Z,2.30
2017-11-27T15:39:19.514Z,2.30
2017-11-27T15:41:21.287Z,2.40
2017-11-27T15:42:19.859Z,2.50
2017-11-27T15:44:18.805Z,2.70
2017-11-27T15:45:17.826Z,3.40
2017-11-27T15:47:17.243Z,2.90
2017-11-27T15:48:15.826Z,2.50
2017-11-27T15:50:14.280Z,3.30
2017-11-27T15:51:13.810Z,3.10
2017-11-27T15:53:11.773Z,3.00
2017-11-27T15:54:11.743Z,2.60
2017-11-27T15:56:10.683Z,2.90
2017-11-27T15:57:10.159Z,2.50
2017-11-27T15:59:07.639Z,3.50
2017-11-27T16:00:07.603Z,3.90
2017-11-27T16:02:07.050Z,3.20
2017-11-27T16:03:06.581Z,2.60
2017-11-27T16:05:03.596Z,2.50
2017-11-27T16:06:04.065Z,2.10
2017-11-27T16:08:02.984Z,2.50
2017-11-27T16:09:01.700Z,3.00
2017-11-27T16:11:00.639Z,2.50
2017-11-27T16:12:00.145Z,3.10
2017-11-27T16:13:59.066Z,2.90
2017-11-27T16:14:57.553Z,3.20
2017-11-27T16:16:56.537Z,3.60
2017-11-27T16:17:55.483Z,3.10
2017-11-27T16:19:53.951Z,3.00
2017-11-27T16:20:53.932Z,3.50
2017-11-27T16:22:51.468Z,2.70
2017-11-27T16:23:51.331Z,3.20
2017-11-27T16:25:49.285Z,2.70
2017-11-27T16:26:49.241Z,2.20
2017-11-27T16:28:47.244Z,3.10
2017-11-27T16:29:47.717Z,3.20
2017-11-27T16:31:45.645Z,2.80
2017-11-27T16:32:46.623Z,2.40
2017-11-27T16:34:45.592Z,2.90
2017-11-27T16:35:45.563Z,2.50
2017-11-27T16:37:43.546Z,2.20
2017-11-27T16:38:43.532Z,2.20
2017-11-27T16:40:41.981Z,2.50
2017-11-27T16:41:42.009Z,3.50
2017-11-27T16:43:37.412Z,2.80
2017-11-27T16:44:37.391Z,2.50
2017-11-27T16:46:34.367Z,2.30
2017-11-27T16:47:33.324Z,2.30
2017-11-27T16:49:31.776Z,2.40
2017-11-27T16:50:31.771Z,2.80
2017-11-27T16:52:29.757Z,2.50
2017-11-27T16:53:29.689Z,3.40
2017-11-27T16:55:28.125Z,2.90
2017-11-27T16:56:27.081Z,2.80
2017-11-27T16:58:25.049Z,2.70
2017-11-27T16:59:25.022Z,2.60
2017-11-27T17:01:24.012Z,3.40
2017-11-27T17:02:22.979Z,2.40
2017-11-27T17:04:24.918Z,2.80
2017-11-27T17:05:21.420Z,3.60
2017-11-27T17:07:19.851Z,2.40
2017-11-27T17:08:19.344Z,2.50
2017-11-27T17:10:18.284Z,3.00
2017-11-27T17:11:17.702Z,2.80
2017-11-27T17:13:15.847Z,3.00
2017-11-27T17:14:14.821Z,2.90
2017-11-27T17:16:13.769Z,2.90
2017-11-27T17:17:12.765Z,3.20
2017-11-27T17:19:09.242Z,2.80
2017-11-27T17:20:08.717Z,2.50
2017-11-27T17:22:05.166Z,2.60
2017-11-27T17:23:05.648Z,2.80
2017-11-27T17:25:03.156Z,2.50
2017-11-27T17:26:02.645Z,3.10
2017-11-27T17:28:01.580Z,2.70
2017-11-27T17:29:00.554Z,2.60
2017-11-27T17:30:57.520Z,7.40
2017-11-27T17:31:56.533Z,3.20
2017-11-27T17:33:52.466Z,3.60
2017-11-27T17:34:52.437Z,4.40
2017-11-27T17:36:50.953Z,7.80
2017-11-27T17:37:50.888Z,10.00
2017-11-27T17:39:49.326Z,12.70
2017-11-27T17:40:48.849Z,14.00
2017-11-27T17:42:47.267Z,11.40
2017-11-27T17:43:46.792Z,9.70
2017-11-27T17:45:42.687Z,4.90
2017-11-27T17:46:42.176Z,5.50
2017-11-27T17:48:38.629Z,4.10
2017-11-27T17:49:38.100Z,3.90
2017-11-27T17:51:38.555Z,3.50
2017-11-27T17:52:38.524Z,3.50
2017-11-27T17:54:35.468Z,4.40
2017-11-27T17:55:34.463Z,3.80
2017-11-27T17:57:30.906Z,3.60
2017-11-27T17:58:30.391Z,3.20
2017-11-27T18:00:26.403Z,3.40
2017-11-27T18:01:26.336Z,4.10
2017-11-27T18:03:25.316Z,6.00
2017-11-27T18:04:24.282Z,5.50
2017-11-27T18:06:20.229Z,6.50
2017-11-27T18:07:20.201Z,5.60
2017-11-27T18:09:18.238Z,6.30
2017-11-27T18:10:19.150Z,5.80
2017-11-27T18:12:16.184Z,6.80
2017-11-27T18:13:16.713Z,6.10
2017-11-27T18:15:15.634Z,5.40
2017-11-27T18:16:14.083Z,4.80
2017-11-27T18:18:15.572Z,4.60
2017-11-27T18:19:12.242Z,4.80
2017-11-27T18:21:08.195Z,4.60
2017-11-27T18:22:08.141Z,4.80
2017-11-27T18:24:08.494Z,4.70
2017-11-27T18:25:08.502Z,3.70
2017-11-27T18:27:05.004Z,3.10
2017-11-27T18:28:04.523Z,3.00
2017-11-27T18:30:04.950Z,3.80
2017-11-27T18:31:04.438Z,3.70
2017-11-27T18:33:00.406Z,5.80
2017-11-27T18:34:00.351Z,6.00
2017-11-27T18:35:56.328Z,5.90
2017-11-27T18:36:56.278Z,6.50
2017-11-27T18:38:52.772Z,6.50
2017-11-27T18:39:52.234Z,6.40
2017-11-27T18:41:49.670Z,5.80
2017-11-27T18:42:48.154Z,5.70
2017-11-27T18:44:46.638Z,5.50
2017-11-27T18:45:46.615Z,4.80
2017-11-27T18:47:44.593Z,5.70
2017-11-27T18:48:44.115Z,5.10
2017-11-27T18:50:40.049Z,4.20
2017-11-27T18:51:40.545Z,4.90
2017-11-27T18:53:38.070Z,4.20
2017-11-27T18:54:38.946Z,5.40
2017-11-27T18:56:38.536Z,5.30
2017-11-27T18:57:39.002Z,5.60
2017-11-27T18:59:38.349Z,4.90
2017-11-27T19:00:36.902Z,4.20
2017-11-27T19:02:35.316Z,3.80
2017-11-27T19:03:34.282Z,3.80
2017-11-27T19:05:32.216Z,3.80
2017-11-27T19:06:32.766Z,4.10
2017-11-27T19:08:30.267Z,4.50
2017-11-27T19:09:32.183Z,4.30
2017-11-27T19:11:32.693Z,4.20
2017-11-27T19:12:30.787Z,4.00
2017-11-27T19:14:26.654Z,5.20
2017-11-27T19:15:27.191Z,5.40
2017-11-27T19:17:25.530Z,4.20
2017-11-27T19:18:25.118Z,4.40
2017-11-27T19:20:25.561Z,3.90
2017-11-27T19:21:25.053Z,4.20
2017-11-27T19:23:22.029Z,4.10
2017-11-27T19:24:21.498Z,4.00
2017-11-27T19:26:16.981Z,4.60
2017-11-27T19:27:17.953Z,4.20
2017-11-27T19:29:15.944Z,3.80
2017-11-27T19:30:14.992Z,4.10
2017-11-27T19:32:10.952Z,5.00
2017-11-27T19:33:10.890Z,4.80
2017-11-27T19:35:07.844Z,4.40
2017-11-27T19:36:06.844Z,4.40
2017-11-27T19:38:02.815Z,4.40
2017-11-27T19:39:02.800Z,4.10